Time;durP1;ratioP1;P1;durP2;ratioP2;P2;SDS_P1;SDS_P2;PMS_P1;PMS_P2;Temp;Humidity;BMP_temperature;BMP_pressure;BME280_temperature;BME280_humidity;BME280_pressure;Samples;Min_cycle;Max_cycle;Signal;HPM_P1;HPM_P2
2022/06/28 00:00:10;;;;;;;;;;;;;;;;;;5046570;28;48064;-85
2022/06/28 00:02:36;;;;;;;;;;;;;;;;;;5057420;28;44153;-85
2022/06/28 00:05:03;;;;;;;;;;;;;;;;;;5068411;28;46508;-84
2022/06/28 00:07:29;;;;;;;;;;;;;;;;;;5066108;28;49047;-84
2022/06/28 00:09:55;;;;;;;;;;;;;;;;;;5048407;28;46136;-85
2022/06/28 00:12:22;;;;;;;;;;;;;;;;;;5049630;28;45944;-86
2022/06/28 00:17:38;;;;;;;;;;;;;;;;;;5024723;28;43336;-85
2022/06/28 00:20:04;;;;;;;;;;;;;;;;;;5050100;28;45048;-84
2022/06/28 00:22:30;;;;;;;;;;;;;;;;;;5049989;28;43078;-85
2022/06/28 00:24:56;;;;;;;;;;;;;;;;;;5049355;28;46442;-85
2022/06/28 00:27:23;;;;;;;;;;;;;;;;;;5048799;28;46864;-84
2022/06/28 00:29:49;;;;;;;;;;;;;;;;;;5064570;28;43553;-85
2022/06/28 00:32:15;;;;;;;;;;;;;;;;;;5049666;28;45148;-85
2022/06/28 00:34:41;;;;;;;;;;;;;;;;;;5067728;28;48746;-84
2022/06/28 00:37:07;;;;;;;;;;;;;;;;;;5049351;28;42920;-84
2022/06/28 00:39:34;;;;;;;;;;;;;;;;;;5048361;28;46764;-84
2022/06/28 00:42:00;;;;;;;;;;;;;;;;;;5048900;28;33096;-84
2022/06/28 00:44:26;;;;;;;;;;;;;;;;;;5049323;28;44259;-84
2022/06/28 00:46:53;;;;;;;;;;;;;;;;;;5045718;28;48025;-84
2022/06/28 00:49:19;;;;;;;;;;;;;;;;;;5047627;28;43703;-84
2022/06/28 00:51:45;;;;;;;;;;;;;;;;;;5066966;28;47359;-85
2022/06/28 00:54:11;;;;;;;;;;;;;;;;;;5048724;28;45182;-84
2022/06/28 00:56:38;;;;;;;;;;;;;;;;;;5049079;28;42731;-86
2022/06/28 00:59:04;;;;;;;;;;;;;;;;;;5067068;28;46323;-85
2022/06/28 01:01:30;;;;;;;;;;;;;;;;;;5067690;28;46998;-85
2022/06/28 01:03:57;;;;;;;;;;;;;;;;;;5050258;28;46070;-84
2022/06/28 01:06:23;;;;;;;;;;;;;;;;;;5067565;28;45757;-84
2022/06/28 01:08:49;;;;;;;;;;;;;;;;;;5049181;28;43446;-84
2022/06/28 01:11:18;;;;;;;;;;;;;;;;;;5066774;28;46470;-85
2022/06/28 01:13:45;;;;;;;;;;;;;;;;;;5048967;28;47083;-85
2022/06/28 01:16:11;;;;;;;;;;;;;;;;;;5066269;28;44605;-83
2022/06/28 01:18:38;;;;;;;;;;;;;;;;;;5048452;28;47878;-85
2022/06/28 01:21:04;;;;;;;;;;;;;;;;;;5067485;28;47097;-84
2022/06/28 01:23:30;;;;;;;;;;;;;;;;;;5053040;28;44755;-85
2022/06/28 01:25:56;;;;;;;;;;;;;;;;;;5061252;28;45207;-84
2022/06/28 01:28:23;;;;;;;;;;;;;;;;;;5050470;28;41889;-84
2022/06/28 01:30:49;;;;;;;;;;;;;;;;;;5052741;28;46727;-83
2022/06/28 01:33:15;;;;;;;;;;;;;;;;;;5052567;28;45579;-85
2022/06/28 01:35:41;;;;;;;;;;;;;;;;;;5049131;28;44654;-84
2022/06/28 01:38:08;;;;;;;;;;;;;;;;;;5040928;28;46499;-84
2022/06/28 01:40:36;;;;;;;;;;;;;;;;;;5050460;28;47283;-84
2022/06/28 01:43:02;;;;;;;;;;;;;;;;;;5046374;28;47796;-84
2022/06/28 01:45:28;;;;;;;;;;;;;;;;;;5050530;28;47341;-84
2022/06/28 01:47:55;;;;;;;;;;;;;;;;;;5044774;28;44600;-84
2022/06/28 01:50:21;;;;;;;;;;;;;;;;;;5051134;28;44445;-84
2022/06/28 01:52:47;;;;;;;;;;;;;;;;;;5068736;28;47060;-84
2022/06/28 01:55:13;;;;;;;;;;;;;;;;;;5049899;28;44631;-84
2022/06/28 01:57:40;;;;;;;;;;;;;;;;;;5049240;28;44534;-84
2022/06/28 02:00:06;;;;;;;;;;;;;;;;;;5048891;28;45939;-84
2022/06/28 02:02:32;;;;;;;;;;;;;;;;;;5050866;28;43016;-85
2022/06/28 02:04:58;;;;;;;;;;;;;;;;;;5050382;28;45293;-84
2022/06/28 02:07:25;;;;;;;;;;;;;;;;;;5048340;28;45482;-84
2022/06/28 02:09:51;;;;;;;;;;;;;;;;;;5044480;28;46622;-85
2022/06/28 02:12:19;;;;;;;;;;;;;;;;;;5049542;28;48473;-85
2022/06/28 02:14:45;;;;;;;;;;;;;;;;;;5068803;28;46326;-84
2022/06/28 02:17:11;;;;;;;;;;;;;;;;;;5046011;28;44893;-84
2022/06/28 02:19:38;;;;;;;;;;;;;;;;;;5049970;28;45528;-85
2022/06/28 02:22:04;;;;;;;;;;;;;;;;;;5050451;28;42937;-84
2022/06/28 02:24:30;;;;;;;;;;;;;;;;;;5050240;28;46380;-84
2022/06/28 02:26:56;;;;;;;;;;;;;;;;;;5065932;28;48082;-84
2022/06/28 02:29:23;;;;;;;;;;;;;;;;;;5050642;28;44721;-86
2022/06/28 02:31:49;;;;;;;;;;;;;;;;;;5068410;28;46855;-85
2022/06/28 02:42:30;;;;;;;;;;;;;;;;;;5067583;28;44728;-84
2022/06/28 02:44:56;;;;;;;;;;;;;;;;;;5064732;28;47789;-84
2022/06/28 02:47:22;;;;;;;;;;;;;;;;;;5046326;28;47997;-84
2022/06/28 02:49:49;;;;;;;;;;;;;;;;;;5049543;28;44763;-85
2022/06/28 02:52:15;;;;;;;;;;;;;;;;;;5068119;28;46812;-84
2022/06/28 02:54:42;;;;;;;;;;;;;;;;;;5049213;28;46026;-84
2022/06/28 02:57:08;;;;;;;;;;;;;;;;;;5048960;28;46044;-84
2022/06/28 02:59:34;;;;;;;;;;;;;;;;;;5050668;28;46146;-84
2022/06/28 03:02:00;;;;;;;;;;;;;;;;;;5049960;28;43927;-84
2022/06/28 03:04:27;;;;;;;;;;;;;;;;;;5068439;28;47430;-84
2022/06/28 03:06:53;;;;;;;;;;;;;;;;;;5038260;28;46701;-84
2022/06/28 03:09:19;;;;;;;;;;;;;;;;;;5045811;28;43884;-84
2022/06/28 03:11:45;;;;;;;;;;;;;;;;;;5048531;28;47959;-84
2022/06/28 03:14:12;;;;;;;;;;;;;;;;;;5033756;28;44717;-84
2022/06/28 03:16:38;;;;;;;;;;;;;;;;;;5066210;28;48314;-84
2022/06/28 03:19:04;;;;;;;;;;;;;;;;;;5049308;28;46723;-85
2022/06/28 03:21:30;;;;;;;;;;;;;;;;;;5049969;28;44550;-84
2022/06/28 03:23:57;;;;;;;;;;;;;;;;;;5049094;28;44842;-84
2022/06/28 03:26:23;;;;;;;;;;;;;;;;;;5048034;28;47334;-84
2022/06/28 03:28:49;;;;;;;;;;;;;;;;;;5067830;28;43478;-83
2022/06/28 03:31:15;;;;;;;;;;;;;;;;;;5046294;28;46568;-85
2022/06/28 03:33:42;;;;;;;;;;;;;;;;;;5048024;28;44876;-84
2022/06/28 03:36:08;;;;;;;;;;;;;;;;;;5063633;28;45005;-84
2022/06/28 03:38:34;;;;;;;;;;;;;;;;;;5067797;28;45382;-85
2022/06/28 03:41:00;;;;;;;;;;;;;;;;;;5048662;28;44742;-84
2022/06/28 03:43:26;;;;;;;;;;;;;;;;;;5067304;28;44488;-84
2022/06/28 03:45:53;;;;;;;;;;;;;;;;;;5045288;28;46105;-85
2022/06/28 03:48:19;;;;;;;;;;;;;;;;;;5048364;28;44337;-84
2022/06/28 03:50:45;;;;;;;;;;;;;;;;;;5048750;28;45169;-84
2022/06/28 03:53:12;;;;;;;;;;;;;;;;;;5066862;28;47165;-85
2022/06/28 03:55:38;;;;;;;;;;;;;;;;;;5049072;28;46170;-84
2022/06/28 03:58:04;;;;;;;;;;;;;;;;;;5047455;28;46819;-84
2022/06/28 04:00:36;;;;;;;;;;;;;;;;;;5066003;28;44737;-85
2022/06/28 04:03:03;;;;;;;;;;;;;;;;;;5049207;28;47722;-84
2022/06/28 04:05:29;;;;;;;;;;;;;;;;;;5048800;28;45795;-85
2022/06/28 04:07:55;;;;;;;;;;;;;;;;;;5067014;28;44528;-85
2022/06/28 04:10:21;;;;;;;;;;;;;;;;;;5048680;28;44993;-84
2022/06/28 04:12:48;;;;;;;;;;;;;;;;;;5048734;28;48891;-85
2022/06/28 04:15:14;;;;;;;;;;;;;;;;;;5067145;28;43497;-84
2022/06/28 04:17:41;;;;;;;;;;;;;;;;;;5049604;28;45079;-84
2022/06/28 04:20:07;;;;;;;;;;;;;;;;;;5048848;28;45618;-85
2022/06/28 04:22:33;;;;;;;;;;;;;;;;;;5048734;28;46472;-84
2022/06/28 04:25:00;;;;;;;;;;;;;;;;;;5066516;28;47975;-84
2022/06/28 04:27:26;;;;;;;;;;;;;;;;;;5044450;28;43563;-84
2022/06/28 04:29:52;;;;;;;;;;;;;;;;;;5028301;28;46470;-85
2022/06/28 04:32:19;;;;;;;;;;;;;;;;;;5028775;28;45146;-84
2022/06/28 04:34:45;;;;;;;;;;;;;;;;;;5028178;28;44817;-85
2022/06/28 04:37:11;;;;;;;;;;;;;;;;;;5041557;28;45265;-85
2022/06/28 04:39:37;;;;;;;;;;;;;;;;;;5046453;28;46425;-84
2022/06/28 04:42:05;;;;;;;;;;;;;;;;;;5044389;28;45962;-85
2022/06/28 04:44:31;;;;;;;;;;;;;;;;;;5048121;28;48558;-84
2022/06/28 04:46:58;;;;;;;;;;;;;;;;;;5065565;28;41954;-85
2022/06/28 04:49:24;;;;;;;;;;;;;;;;;;5067714;28;45218;-85
2022/06/28 04:51:50;;;;;;;;;;;;;;;;;;5047767;28;46038;-83
2022/06/28 04:54:17;;;;;;;;;;;;;;;;;;5048571;28;45730;-83
2022/06/28 04:56:43;;;;;;;;;;;;;;;;;;5046625;28;46126;-83
2022/06/28 04:59:09;;;;;;;;;;;;;;;;;;5048027;28;48300;-83
2022/06/28 05:01:37;;;;;;;;;;;;;;;;;;5048021;28;19979;-83
2022/06/28 05:04:03;;;;;;;;;;;;;;;;;;5047779;28;47392;-83
2022/06/28 05:06:30;;;;;;;;;;;;;;;;;;5058606;28;45808;-83
2022/06/28 05:08:56;;;;;;;;;;;;;;;;;;5042162;28;44512;-83
2022/06/28 05:11:42;;;;;;;;;;;;;;;;;;5050883;28;19928;-83
2022/06/28 05:14:09;;;;;;;;;;;;;;;;;;5056769;28;44603;-83
2022/06/28 05:16:35;;;;;;;;;;;;;;;;;;5038885;28;47113;-83
2022/06/28 05:19:01;;;;;;;;;;;;;;;;;;5056007;28;47299;-83
2022/06/28 05:21:28;;;;;;;;;;;;;;;;;;5065148;28;44709;-83
2022/06/28 05:23:54;;;;;;;;;;;;;;;;;;5042221;28;46856;-82
2022/06/28 05:26:20;;;;;;;;;;;;;;;;;;5045273;28;43924;-83
2022/06/28 05:28:47;;;;;;;;;;;;;;;;;;5041933;28;46392;-82
2022/06/28 05:31:13;;;;;;;;;;;;;;;;;;5062597;28;45258;-82
2022/06/28 05:33:39;;;;;;;;;;;;;;;;;;5046501;28;42805;-83
2022/06/28 05:36:05;;;;;;;;;;;;;;;;;;5042698;28;47601;-81
2022/06/28 05:38:32;;;;;;;;;;;;;;;;;;5038271;28;45303;-81
2022/06/28 05:40:58;;;;;;;;;;;;;;;;;;5040744;28;44209;-82
2022/06/28 05:43:24;;;;;;;;;;;;;;;;;;5043182;28;46375;-81
2022/06/28 05:45:50;;;;;;;;;;;;;;;;;;5063625;28;48252;-82
2022/06/28 05:48:17;;;;;;;;;;;;;;;;;;5041548;28;42600;-81
2022/06/28 05:50:43;;;;;;;;;;;;;;;;;;5045384;28;45614;-81
2022/06/28 05:53:09;;;;;;;;;;;;;;;;;;5044157;28;44605;-82
2022/06/28 05:55:35;;;;;;;;;;;;;;;;;;5062703;28;46282;-81
2022/06/28 05:58:02;;;;;;;;;;;;;;;;;;5035583;28;45418;-81
2022/06/28 06:00:28;;;;;;;;;;;;;;;;;;5045686;28;43222;-81
2022/06/28 06:02:54;;;;;;;;;;;;;;;;;;5045111;28;47203;-81
2022/06/28 06:05:20;;;;;;;;;;;;;;;;;;5043920;28;48527;-84
2022/06/28 06:07:47;;;;;;;;;;;;;;;;;;5058199;28;46344;-80
2022/06/28 06:10:13;;;;;;;;;;;;;;;;;;5046138;28;46990;-81
2022/06/28 06:12:39;;;;;;;;;;;;;;;;;;5055345;28;44784;-82
2022/06/28 06:15:06;;;;;;;;;;;;;;;;;;5048959;28;47635;-81
2022/06/28 06:17:32;;;;;;;;;;;;;;;;;;5039506;28;46939;-81
2022/06/28 06:20:03;;;;;;;;;;;;;;;;;;5050634;28;45029;-81
2022/06/28 06:22:29;;;;;;;;;;;;;;;;;;5064384;28;46357;-81
2022/06/28 06:24:56;;;;;;;;;;;;;;;;;;5049063;28;46890;-81
2022/06/28 06:27:22;;;;;;;;;;;;;;;;;;5044459;28;44730;-80
2022/06/28 06:29:48;;;;;;;;;;;;;;;;;;5060596;28;46808;-80
2022/06/28 06:32:14;;;;;;;;;;;;;;;;;;5038931;28;44449;-81
2022/06/28 06:34:40;;;;;;;;;;;;;;;;;;5065826;28;46453;-81
2022/06/28 06:37:07;;;;;;;;;;;;;;;;;;5045725;28;47024;-81
2022/06/28 06:39:33;;;;;;;;;;;;;;;;;;5058022;28;44820;-82
2022/06/28 06:42:00;;;;;;;;;;;;;;;;;;5061227;28;44515;-81
2022/06/28 06:44:26;;;;;;;;;;;;;;;;;;5047636;28;48648;-82
2022/06/28 06:46:53;;;;;;;;;;;;;;;;;;5049181;28;44699;-80
2022/06/28 06:49:19;;;;;;;;;;;;;;;;;;5064986;28;46496;-81
2022/06/28 06:51:48;;;;;;;;;;;;;;;;;;5058734;28;43312;-81
2022/06/28 06:54:14;;;;;;;;;;;;;;;;;;5046946;28;46431;-79
2022/06/28 06:56:40;;;;;;;;;;;;;;;;;;5058837;28;48237;-80
2022/06/28 06:59:13;;;;;;;;;;;;;;;;;;5045756;28;44577;-80
2022/06/28 07:01:40;;;;;;;;;;;;;;;;;;5037333;28;45420;-81
2022/06/28 07:04:09;;;;;;;;;;;;;;;;;;5058051;28;47665;-80
2022/06/28 07:06:35;;;;;;;;;;;;;;;;;;5037773;28;46992;-81
2022/06/28 07:09:01;;;;;;;;;;;;;;;;;;5053948;28;46429;-80
2022/06/28 07:11:31;;;;;;;;;;;;;;;;;;5053926;28;45805;-80
2022/06/28 07:14:00;;;;;;;;;;;;;;;;;;5044839;28;47758;-81
2022/06/28 07:16:26;;;;;;;;;;;;;;;;;;5044241;28;46383;-81
2022/06/28 07:18:55;;;;;;;;;;;;;;;;;;5036689;28;45032;-81
2022/06/28 07:21:22;;;;;;;;;;;;;;;;;;5056600;28;45888;-81
2022/06/28 07:23:48;;;;;;;;;;;;;;;;;;5042025;28;46981;-81
2022/06/28 07:26:16;;;;;;;;;;;;;;;;;;5043786;28;44519;-79
2022/06/28 07:28:42;;;;;;;;;;;;;;;;;;5039640;28;44920;-80
2022/06/28 07:31:08;;;;;;;;;;;;;;;;;;5061858;28;45054;-80
2022/06/28 07:33:35;;;;;;;;;;;;;;;;;;5047130;28;44171;-80
2022/06/28 07:36:01;;;;;;;;;;;;;;;;;;5042872;28;48342;-81
2022/06/28 07:38:29;;;;;;;;;;;;;;;;;;5062531;28;44856;-80
2022/06/28 07:40:56;;;;;;;;;;;;;;;;;;5035160;28;46282;-81
2022/06/28 07:43:22;;;;;;;;;;;;;;;;;;5065922;28;47986;-79
2022/06/28 07:45:48;;;;;;;;;;;;;;;;;;5041573;28;44381;-79
2022/06/28 07:48:16;;;;;;;;;;;;;;;;;;5060361;28;47417;-79
2022/06/28 07:53:27;;;;;;;;;;;;;;;;;;5046266;28;46364;-79
2022/06/28 07:55:54;;;;;;;;;;;;;;;;;;5054150;28;48120;-79
2022/06/28 07:58:21;;;;;;;;;;;;;;;;;;5045947;28;46015;-80
2022/06/28 08:00:48;;;;;;;;;;;;;;;;;;5054284;28;46117;-79
2022/06/28 08:03:14;;;;;;;;;;;;;;;;;;5045149;28;46970;-80
2022/06/28 08:05:40;;;;;;;;;;;;;;;;;;5046707;28;42793;-80
2022/06/28 08:08:06;;;;;;;;;;;;;;;;;;5048104;28;47981;-81
2022/06/28 08:10:33;;;;;;;;;;;;;;;;;;5048363;28;47440;-80
2022/06/28 08:13:02;;;;;;;;;;;;;;;;;;5045080;28;43697;-82
2022/06/28 08:15:28;;;;;;;;;;;;;;;;;;5058830;28;46890;-80
2022/06/28 08:17:55;;;;;;;;;;;;;;;;;;5044259;28;46117;-79
2022/06/28 08:20:21;;;;;;;;;;;;;;;;;;5045078;28;47705;-80
2022/06/28 08:22:47;;;;;;;;;;;;;;;;;;5055220;28;48111;-80
2022/06/28 08:25:13;;;;;;;;;;;;;;;;;;5062380;28;45837;-79
2022/06/28 08:27:45;;;;;;;;;;;;;;;;;;5051952;28;46652;-79
2022/06/28 08:30:11;;;;;;;;;;;;;;;;;;5056722;28;45385;-79
2022/06/28 08:32:37;;;;;;;;;;;;;;;;;;5061590;28;45729;-80
2022/06/28 08:35:04;;;;;;;;;;;;;;;;;;5044629;28;46812;-79
2022/06/28 08:37:30;;;;;;;;;;;;;;;;;;5036615;28;46660;-81
2022/06/28 08:39:57;;;;;;;;;;;;;;;;;;5063871;28;46501;-79
2022/06/28 08:42:23;;;;;;;;;;;;;;;;;;5032477;28;48464;-79
2022/06/28 08:44:49;;;;;;;;;;;;;;;;;;5048166;28;45264;-80
2022/06/28 08:47:15;;;;;;;;;;;;;;;;;;5055369;28;47584;-80
2022/06/28 08:49:42;;;;;;;;;;;;;;;;;;5056121;28;47947;-80
2022/06/28 08:52:08;;;;;;;;;;;;;;;;;;5043377;28;45932;-78
2022/06/28 08:54:34;;;;;;;;;;;;;;;;;;5050101;28;45638;-80
2022/06/28 08:57:04;;;;;;;;;;;;;;;;;;5045235;28;47296;-80
2022/06/28 08:59:30;;;;;;;;;;;;;;;;;;5063513;28;44701;-80
2022/06/28 09:01:57;;;;;;;;;;;;;;;;;;5039484;28;46826;-82
2022/06/28 09:04:23;;;;;;;;;;;;;;;;;;5038436;28;46120;-80
2022/06/28 09:06:49;;;;;;;;;;;;;;;;;;5041667;28;43909;-80
2022/06/28 09:09:16;;;;;;;;;;;;;;;;;;5032918;28;44895;-80
2022/06/28 09:11:42;;;;;;;;;;;;;;;;;;5036234;28;42657;-80
2022/06/28 09:14:08;;;;;;;;;;;;;;;;;;5037806;28;46465;-80
2022/06/28 09:16:34;;;;;;;;;;;;;;;;;;5046370;28;47127;-80
2022/06/28 09:19:00;;;;;;;;;;;;;;;;;;5056197;28;44699;-79
2022/06/28 09:21:27;;;;;;;;;;;;;;;;;;5057163;28;48214;-80
2022/06/28 09:23:53;;;;;;;;;;;;;;;;;;5040917;28;44658;-79
2022/06/28 09:26:19;;;;;;;;;;;;;;;;;;5046131;28;47641;-79
2022/06/28 09:28:46;;;;;;;;;;;;;;;;;;5037552;28;46949;-79
2022/06/28 09:31:15;;;;;;;;;;;;;;;;;;5060159;28;44907;-79
2022/06/28 09:33:42;;;;;;;;;;;;;;;;;;5043021;28;46653;-79
2022/06/28 09:36:08;;;;;;;;;;;;;;;;;;5039904;28;46219;-78
2022/06/28 09:38:34;;;;;;;;;;;;;;;;;;5054604;28;43054;-79
2022/06/28 09:41:00;;;;;;;;;;;;;;;;;;5055770;28;45996;-78
2022/06/28 09:43:27;;;;;;;;;;;;;;;;;;5061344;28;46848;-79
2022/06/28 09:45:54;;;;;;;;;;;;;;;;;;5044200;28;47571;-79
2022/06/28 09:48:20;;;;;;;;;;;;;;;;;;5063996;28;48370;-80
2022/06/28 09:50:46;;;;;;;;;;;;;;;;;;5039028;28;46368;-79
2022/06/28 09:53:16;;;;;;;;;;;;;;;;;;5063270;28;46481;-79
2022/06/28 09:55:42;;;;;;;;;;;;;;;;;;5051162;28;48132;-79
2022/06/28 09:58:08;;;;;;;;;;;;;;;;;;5065498;28;44517;-79
2022/06/28 10:00:35;;;;;;;;;;;;;;;;;;5059100;28;46395;-79
2022/06/28 10:03:02;;;;;;;;;;;;;;;;;;5038314;28;48368;-79
2022/06/28 10:05:36;;;;;;;;;;;;;;;;;;5055738;28;45061;-79
2022/06/28 10:08:03;;;;;;;;;;;;;;;;;;5069099;28;48349;-79
2022/06/28 10:10:29;;;;;;;;;;;;;;;;;;5066095;28;42551;-80
2022/06/28 10:15:40;;;;;;;;;;;;;;;;;;5066919;28;48085;-80
2022/06/28 10:18:07;;;;;;;;;;;;;;;;;;5062228;28;41810;-80
2022/06/28 10:20:33;;;;;;;;;;;;;;;;;;5064631;28;46774;-79
2022/06/28 10:22:59;;;;;;;;;;;;;;;;;;5046305;28;46130;-80
2022/06/28 10:25:25;;;;;;;;;;;;;;;;;;5061895;28;45689;-80
2022/06/28 10:27:52;;;;;;;;;;;;;;;;;;5062834;28;47981;-79
2022/06/28 10:30:18;;;;;;;;;;;;;;;;;;5061855;28;44213;-79
2022/06/28 10:32:44;;;;;;;;;;;;;;;;;;5047313;28;46680;-80
2022/06/28 10:35:11;;;;;;;;;;;;;;;;;;5057139;28;48632;-79
2022/06/28 10:37:37;;;;;;;;;;;;;;;;;;5054716;28;46211;-79
2022/06/28 10:40:04;;;;;;;;;;;;;;;;;;5045439;28;46494;-80
2022/06/28 10:42:30;;;;;;;;;;;;;;;;;;5052754;28;45745;-79
2022/06/28 10:44:56;;;;;;;;;;;;;;;;;;5053877;28;44721;-80
2022/06/28 10:47:22;;;;;;;;;;;;;;;;;;5059432;28;46656;-79
2022/06/28 10:49:49;;;;;;;;;;;;;;;;;;5032544;28;44818;-79
2022/06/28 10:52:15;;;;;;;;;;;;;;;;;;5052458;28;48833;-79
2022/06/28 10:54:41;;;;;;;;;;;;;;;;;;5050988;28;48004;-79
2022/06/28 10:57:07;;;;;;;;;;;;;;;;;;5053853;28;45991;-78
2022/06/28 10:59:33;;;;;;;;;;;;;;;;;;5063019;28;45576;-78
2022/06/28 11:02:00;;;;;;;;;;;;;;;;;;5033729;28;48014;-79
2022/06/28 11:04:27;;;;;;;;;;;;;;;;;;5040596;28;44741;-79
2022/06/28 11:06:53;;;;;;;;;;;;;;;;;;5063581;28;46691;-78
2022/06/28 11:09:19;;;;;;;;;;;;;;;;;;5058135;28;35662;-78
2022/06/28 11:11:46;;;;;;;;;;;;;;;;;;5055326;28;46449;-79
2022/06/28 11:14:12;;;;;;;;;;;;;;;;;;5057037;28;47391;-79
2022/06/28 11:16:41;;;;;;;;;;;;;;;;;;5050773;28;45839;-78
2022/06/28 11:19:07;;;;;;;;;;;;;;;;;;5056754;28;45125;-80
2022/06/28 11:21:33;;;;;;;;;;;;;;;;;;5052669;28;46835;-79
2022/06/28 11:24:00;;;;;;;;;;;;;;;;;;5061444;28;43362;-79
2022/06/28 11:29:11;;;;;;;;;;;;;;;;;;5055726;28;48104;-78
2022/06/28 11:31:37;;;;;;;;;;;;;;;;;;5060550;28;45058;-79
2022/06/28 11:34:03;;;;;;;;;;;;;;;;;;5048304;28;46808;-79
2022/06/28 11:36:32;;;;;;;;;;;;;;;;;;5054406;28;44713;-80
2022/06/28 11:38:59;;;;;;;;;;;;;;;;;;5059886;28;46492;-79
2022/06/28 11:41:30;;;;;;;;;;;;;;;;;;5061788;28;48174;-76
2022/06/28 11:43:57;;;;;;;;;;;;;;;;;;5056434;28;45842;-77
2022/06/28 11:46:24;;;;;;;;;;;;;;;;;;5058873;28;47673;-77
2022/06/28 11:48:51;;;;;;;;;;;;;;;;;;5059858;28;47230;-76
2022/06/28 11:51:17;;;;;;;;;;;;;;;;;;5054770;28;43645;-79
2022/06/28 11:53:44;;;;;;;;;;;;;;;;;;5039068;28;47314;-79
2022/06/28 11:56:13;;;;;;;;;;;;;;;;;;5051950;28;46017;-80
2022/06/28 11:58:39;;;;;;;;;;;;;;;;;;5051006;28;45495;-78
2022/06/28 12:01:05;;;;;;;;;;;;;;;;;;5035491;28;45972;-79
2022/06/28 12:03:32;;;;;;;;;;;;;;;;;;5051630;28;46022;-77
2022/06/28 12:05:59;;;;;;;;;;;;;;;;;;5059049;28;47469;-78
2022/06/28 12:08:25;;;;;;;;;;;;;;;;;;5049897;28;47001;-78
2022/06/28 12:10:52;;;;;;;;;;;;;;;;;;5042098;28;44736;-78
2022/06/28 12:13:18;;;;;;;;;;;;;;;;;;5059394;28;47813;-78
2022/06/28 12:15:44;;;;;;;;;;;;;;;;;;5047513;28;41922;-78
2022/06/28 12:18:13;;;;;;;;;;;;;;;;;;5048739;28;46453;-79
2022/06/28 12:20:39;;;;;;;;;;;;;;;;;;5037545;28;48095;-78
2022/06/28 12:23:05;;;;;;;;;;;;;;;;;;5042135;28;45822;-79
2022/06/28 12:25:32;;;;;;;;;;;;;;;;;;5056692;28;47583;-77
2022/06/28 12:27:59;;;;;;;;;;;;;;;;;;5043148;28;46909;-79
2022/06/28 12:30:25;;;;;;;;;;;;;;;;;;5032691;28;44727;-77
2022/06/28 12:32:56;;;;;;;;;;;;;;;;;;5055836;28;47876;-78
2022/06/28 12:35:23;;;;;;;;;;;;;;;;;;5057349;28;47335;-78
2022/06/28 12:37:49;;;;;;;;;;;;;;;;;;5055182;28;46262;-78
2022/06/28 12:40:16;;;;;;;;;;;;;;;;;;5051146;28;46861;-79
2022/06/28 12:42:42;;;;;;;;;;;;;;;;;;5045556;28;45608;-78
2022/06/28 12:45:08;;;;;;;;;;;;;;;;;;5062468;28;46819;-78
2022/06/28 12:47:34;;;;;;;;;;;;;;;;;;5062291;28;48407;-79
2022/06/28 12:50:04;;;;;;;;;;;;;;;;;;5061532;28;44688;-78
2022/06/28 12:52:30;;;;;;;;;;;;;;;;;;5054263;28;47699;-78
2022/06/28 12:55:00;;;;;;;;;;;;;;;;;;5054394;28;48113;-79
2022/06/28 12:57:28;;;;;;;;;;;;;;;;;;5055995;28;44952;-77
2022/06/28 12:59:55;;;;;;;;;;;;;;;;;;5055120;28;45936;-79
2022/06/28 13:02:21;;;;;;;;;;;;;;;;;;5051327;28;44748;-79
2022/06/28 13:04:47;;;;;;;;;;;;;;;;;;5045680;28;46377;-80
2022/06/28 13:07:14;;;;;;;;;;;;;;;;;;5053289;28;48362;-79
2022/06/28 13:09:40;;;;;;;;;;;;;;;;;;5040662;28;45837;-79
2022/06/28 13:12:06;;;;;;;;;;;;;;;;;;5065497;28;46462;-79
2022/06/28 13:14:33;;;;;;;;;;;;;;;;;;5043205;28;48043;-79
2022/06/28 13:16:59;;;;;;;;;;;;;;;;;;5063879;28;45954;-79
2022/06/28 13:19:25;;;;;;;;;;;;;;;;;;5055910;28;47266;-80
2022/06/28 13:21:51;;;;;;;;;;;;;;;;;;5044502;28;44714;-78
2022/06/28 13:24:18;;;;;;;;;;;;;;;;;;5050715;28;45186;-79
2022/06/28 13:26:45;;;;;;;;;;;;;;;;;;5060813;28;48141;-79
2022/06/28 13:29:11;;;;;;;;;;;;;;;;;;5046722;28;45800;-80
2022/06/28 13:31:40;;;;;;;;;;;;;;;;;;5047326;28;47781;-79
2022/06/28 13:34:06;;;;;;;;;;;;;;;;;;5062485;28;45402;-80
2022/06/28 13:36:32;;;;;;;;;;;;;;;;;;5064356;28;45782;-79
2022/06/28 13:38:59;;;;;;;;;;;;;;;;;;5045680;28;46489;-80
2022/06/28 13:41:34;;;;;;;;;;;;;;;;;;5047876;28;46395;-79
2022/06/28 13:44:00;;;;;;;;;;;;;;;;;;5062609;28;47703;-80
2022/06/28 13:46:26;;;;;;;;;;;;;;;;;;5061391;28;48158;-79
2022/06/28 13:48:53;;;;;;;;;;;;;;;;;;5048444;28;46254;-79
2022/06/28 13:51:19;;;;;;;;;;;;;;;;;;5065808;28;46311;-79
2022/06/28 13:53:45;;;;;;;;;;;;;;;;;;5036859;28;46444;-78
2022/06/28 13:56:15;;;;;;;;;;;;;;;;;;5044697;28;44583;-79
2022/06/28 13:58:41;;;;;;;;;;;;;;;;;;5051318;28;47691;-79
2022/06/28 14:01:07;;;;;;;;;;;;;;;;;;5064293;28;46048;-79
2022/06/28 14:03:34;;;;;;;;;;;;;;;;;;5045210;28;47414;-79
2022/06/28 14:06:00;;;;;;;;;;;;;;;;;;5050882;28;46990;-80
2022/06/28 14:08:26;;;;;;;;;;;;;;;;;;5060825;28;45649;-79
2022/06/28 14:10:53;;;;;;;;;;;;;;;;;;5037033;28;45036;-79
2022/06/28 14:13:19;;;;;;;;;;;;;;;;;;5057142;28;48303;-80
2022/06/28 14:15:45;;;;;;;;;;;;;;;;;;5059998;28;41782;-80
2022/06/28 14:18:11;;;;;;;;;;;;;;;;;;5043424;28;47525;-80
2022/06/28 14:20:38;;;;;;;;;;;;;;;;;;5054643;28;46820;-79
2022/06/28 14:23:04;;;;;;;;;;;;;;;;;;5064017;28;45913;-79
2022/06/28 14:25:30;;;;;;;;;;;;;;;;;;5061496;28;45391;-79
2022/06/28 14:27:56;;;;;;;;;;;;;;;;;;5057641;28;43030;-80
2022/06/28 14:30:25;;;;;;;;;;;;;;;;;;5067524;28;47704;-79
2022/06/28 14:32:51;;;;;;;;;;;;;;;;;;5049250;28;47466;-79
2022/06/28 14:35:22;;;;;;;;;;;;;;;;;;5067151;28;44606;-80
2022/06/28 14:38:09;;;;;;;;;;;;;;;;;;5062958;28;19955;-80
2022/06/28 14:40:35;;;;;;;;;;;;;;;;;;5049758;28;46881;-80
2022/06/28 14:43:01;;;;;;;;;;;;;;;;;;5067237;28;45881;-80
2022/06/28 14:45:28;;;;;;;;;;;;;;;;;;5035122;28;47420;-80
2022/06/28 14:48:14;;;;;;;;;;;;;;;;;;5059250;28;20310;-80
2022/06/28 14:50:40;;;;;;;;;;;;;;;;;;5067085;28;46478;-79
2022/06/28 14:53:11;;;;;;;;;;;;;;;;;;5048920;28;50640;-79
2022/06/28 14:55:52;;;;;;;;;;;;;;;;;;5049691;28;19979;-80
2022/06/28 14:58:18;;;;;;;;;;;;;;;;;;5066005;28;46593;-80
2022/06/28 15:00:50;;;;;;;;;;;;;;;;;;5067790;28;47655;-80
2022/06/28 15:03:23;;;;;;;;;;;;;;;;;;5032015;28;47021;-80
2022/06/28 15:05:50;;;;;;;;;;;;;;;;;;5062177;28;46374;-80
2022/06/28 15:08:19;;;;;;;;;;;;;;;;;;5047424;28;50180;-80
2022/06/28 15:10:48;;;;;;;;;;;;;;;;;;5048738;28;46937;-79
2022/06/28 15:13:15;;;;;;;;;;;;;;;;;;5066746;28;45098;-80
2022/06/28 15:15:44;;;;;;;;;;;;;;;;;;5051014;28;41966;-79
2022/06/28 15:18:15;;;;;;;;;;;;;;;;;;5065863;28;47660;-80
2022/06/28 15:20:41;;;;;;;;;;;;;;;;;;5048361;28;48111;-80
2022/06/28 15:31:25;;;;;;;;;;;;;;;;;;5065264;28;46486;-81
2022/06/28 15:33:51;;;;;;;;;;;;;;;;;;5050134;28;47298;-80
2022/06/28 15:36:18;;;;;;;;;;;;;;;;;;5053180;28;45769;-81
2022/06/28 15:38:44;;;;;;;;;;;;;;;;;;5028480;28;47040;-80
2022/06/28 15:41:10;;;;;;;;;;;;;;;;;;5049721;28;48263;-80
2022/06/28 15:43:36;;;;;;;;;;;;;;;;;;5062669;28;46627;-80
2022/06/28 15:46:03;;;;;;;;;;;;;;;;;;5065999;28;47577;-80
2022/06/28 15:48:29;;;;;;;;;;;;;;;;;;5043636;28;47462;-80
2022/06/28 15:50:55;;;;;;;;;;;;;;;;;;5067341;28;44642;-80
2022/06/28 15:53:21;;;;;;;;;;;;;;;;;;5050692;28;47206;-80
2022/06/28 15:55:48;;;;;;;;;;;;;;;;;;5045525;28;46214;-81
2022/06/28 15:58:14;;;;;;;;;;;;;;;;;;5026969;28;46562;-81
2022/06/28 16:00:40;;;;;;;;;;;;;;;;;;5046341;28;45183;-81
2022/06/28 16:03:07;;;;;;;;;;;;;;;;;;5063363;28;41958;-81
2022/06/28 16:05:33;;;;;;;;;;;;;;;;;;5047499;28;48126;-80
2022/06/28 16:07:59;;;;;;;;;;;;;;;;;;5065659;28;48629;-81
2022/06/28 16:10:28;;;;;;;;;;;;;;;;;;5047596;28;43214;-80
2022/06/28 16:12:55;;;;;;;;;;;;;;;;;;5058006;28;46485;-80
2022/06/28 16:15:22;;;;;;;;;;;;;;;;;;5046297;28;46003;-80
2022/06/28 16:17:48;;;;;;;;;;;;;;;;;;5065284;28;46981;-81
2022/06/28 16:20:15;;;;;;;;;;;;;;;;;;5062047;28;47044;-81
2022/06/28 16:22:48;;;;;;;;;;;;;;;;;;5064256;28;46397;-79
2022/06/28 16:25:14;;;;;;;;;;;;;;;;;;5053715;28;47573;-78
2022/06/28 16:27:41;;;;;;;;;;;;;;;;;;5038112;28;46812;-82
2022/06/28 16:30:07;;;;;;;;;;;;;;;;;;5044968;28;44559;-81
2022/06/28 16:32:33;;;;;;;;;;;;;;;;;;5062642;28;47781;-80
2022/06/28 16:35:00;;;;;;;;;;;;;;;;;;5054705;28;48569;-80
2022/06/28 16:37:32;;;;;;;;;;;;;;;;;;5039302;28;47008;-77
2022/06/28 16:39:59;;;;;;;;;;;;;;;;;;5058084;28;47002;-77
2022/06/28 16:42:25;;;;;;;;;;;;;;;;;;5053813;28;44938;-77
2022/06/28 16:44:52;;;;;;;;;;;;;;;;;;5036127;28;44724;-77
2022/06/28 16:47:19;;;;;;;;;;;;;;;;;;5039012;28;47509;-77
2022/06/28 16:49:45;;;;;;;;;;;;;;;;;;5046800;28;46232;-79
2022/06/28 16:52:12;;;;;;;;;;;;;;;;;;5045853;28;47527;-76
2022/06/28 16:54:40;;;;;;;;;;;;;;;;;;5062285;28;48304;-79
2022/06/28 16:57:07;;;;;;;;;;;;;;;;;;5043355;28;45687;-79
2022/06/28 16:59:33;;;;;;;;;;;;;;;;;;5063529;28;46999;-79
2022/06/28 17:01:59;;;;;;;;;;;;;;;;;;5060087;28;45880;-79
2022/06/28 17:04:26;;;;;;;;;;;;;;;;;;5061028;28;47827;-78
2022/06/28 17:09:37;;;;;;;;;;;;;;;;;;5057405;28;43981;-79
2022/06/28 17:12:03;;;;;;;;;;;;;;;;;;5045586;28;47793;-78